createdAt,value
2018-09-04T00:00:30.510Z,31.53
2018-09-04T00:02:59.756Z,33.03
2018-09-04T00:05:29.144Z,34.20
2018-09-04T00:16:56.671Z,34.53
2018-09-04T00:19:26.607Z,35.23
2018-09-04T00:21:56.071Z,33.97
2018-09-04T00:24:25.279Z,39.33
2018-09-04T00:26:54.603Z,38.27
2018-09-04T00:29:24.431Z,36.10
2018-09-04T00:31:53.741Z,38.47
2018-09-04T00:34:23.055Z,39.83
2018-09-04T00:36:52.232Z,38.13
2018-09-04T00:39:21.841Z,37.80
2018-09-04T00:41:51.114Z,37.83
2018-09-04T00:44:20.341Z,38.10
2018-09-04T00:46:49.575Z,37.80
2018-09-04T00:49:18.964Z,35.70
2018-09-04T00:51:48.255Z,34.43
2018-09-04T00:54:17.473Z,33.53
2018-09-04T00:56:46.712Z,32.70
2018-09-04T00:59:15.967Z,31.97
2018-09-04T01:01:45.191Z,32.43
2018-09-04T01:04:14.833Z,37.07
2018-09-04T01:06:44.099Z,33.77
2018-09-04T01:09:21.455Z,32.53
2018-09-04T01:11:50.740Z,32.57
2018-09-04T01:14:19.915Z,33.97
2018-09-04T01:16:49.216Z,30.50
2018-09-04T01:19:19.880Z,33.70
2018-09-04T01:21:49.046Z,32.87
2018-09-04T01:24:18.312Z,30.27
2018-09-04T01:26:47.579Z,28.93
2018-09-04T01:29:16.995Z,31.40
2018-09-04T01:31:46.254Z,29.90
2018-09-04T01:34:15.476Z,32.27
2018-09-04T01:36:44.653Z,29.13
2018-09-04T01:39:13.968Z,31.37
2018-09-04T01:41:43.225Z,29.30
2018-09-04T01:44:12.453Z,28.77
2018-09-04T01:46:43.176Z,33.20
2018-09-04T01:49:12.427Z,33.23
2018-09-04T01:51:41.687Z,30.67
2018-09-04T01:54:10.860Z,28.67
2018-09-04T01:56:40.079Z,32.73
2018-09-04T01:59:09.299Z,28.80
2018-09-04T02:01:38.627Z,31.70
2018-09-04T02:04:07.847Z,29.37
2018-09-04T02:06:37.132Z,29.60
2018-09-04T02:09:17.346Z,30.17
2018-09-04T02:11:46.667Z,29.83
2018-09-04T02:14:15.850Z,32.53
2018-09-04T02:16:45.153Z,31.57
2018-09-04T02:19:14.495Z,34.00
2018-09-04T02:21:43.779Z,32.13
2018-09-04T02:24:13.213Z,34.37
2018-09-04T02:26:42.479Z,35.13
2018-09-04T02:29:11.681Z,33.27
2018-09-04T02:31:40.952Z,36.83
2018-09-04T02:34:10.158Z,34.77
2018-09-04T02:36:39.452Z,35.00
2018-09-04T02:39:10.279Z,36.47
2018-09-04T02:41:39.479Z,37.20
2018-09-04T02:44:08.807Z,35.70
2018-09-04T02:46:38.405Z,34.93
2018-09-04T02:49:08.549Z,38.13
2018-09-04T02:51:38.154Z,39.10
2018-09-04T02:54:07.458Z,40.27
2018-09-04T02:56:36.787Z,41.07
2018-09-04T02:59:06.012Z,37.77
2018-09-04T03:01:35.363Z,40.70
2018-09-04T03:04:04.588Z,40.20
2018-09-04T03:06:33.826Z,41.53
2018-09-04T03:09:03.511Z,42.47
2018-09-04T03:11:32.759Z,43.83
2018-09-04T03:14:02.094Z,39.47
2018-09-04T03:16:31.427Z,43.37
2018-09-04T03:19:00.699Z,41.13
2018-09-04T03:21:29.944Z,37.70
2018-09-04T03:23:59.509Z,37.87
2018-09-04T03:26:28.707Z,46.73
2018-09-04T03:28:57.909Z,45.83
2018-09-04T03:31:27.838Z,42.23
2018-09-04T03:33:57.134Z,41.93
2018-09-04T03:36:26.368Z,43.37
2018-09-04T03:38:55.556Z,40.90
2018-09-04T03:41:24.782Z,41.50
2018-09-04T03:43:53.974Z,42.30
2018-09-04T03:46:23.859Z,46.20
2018-09-04T03:48:53.143Z,44.57
2018-09-04T03:51:22.388Z,39.10
2018-09-04T03:53:51.764Z,44.67
2018-09-04T03:56:21.007Z,44.20
2018-09-04T03:58:50.187Z,45.47
2018-09-04T04:01:19.692Z,47.90
2018-09-04T04:03:49.005Z,45.53
2018-09-04T04:06:18.228Z,46.67
2018-09-04T04:08:47.492Z,48.57
2018-09-04T04:11:17.716Z,44.70
2018-09-04T04:13:47.472Z,47.40
2018-09-04T04:16:16.815Z,48.10
2018-09-04T04:18:46.105Z,47.53
2018-09-04T04:21:15.337Z,45.73
2018-09-04T04:23:45.768Z,45.23
2018-09-04T04:26:16.588Z,49.07
2018-09-04T04:28:45.965Z,44.87
2018-09-04T04:31:15.136Z,50.10
2018-09-04T04:33:44.402Z,48.97
2018-09-04T04:36:13.590Z,49.53
2018-09-04T04:38:42.848Z,49.43
2018-09-04T04:41:12.078Z,48.60
2018-09-04T04:43:41.260Z,49.67
2018-09-04T04:46:10.488Z,42.00
2018-09-04T04:48:39.734Z,46.57
2018-09-04T04:51:08.936Z,48.13
2018-09-04T04:53:38.223Z,44.00
2018-09-04T04:56:07.491Z,49.17
2018-09-04T04:58:36.799Z,47.70
2018-09-04T05:01:06.471Z,47.20
2018-09-04T05:03:35.689Z,47.67
2018-09-04T05:06:05.035Z,49.23
2018-09-04T05:08:34.356Z,43.67
2018-09-04T05:11:03.679Z,53.87
2018-09-04T05:13:32.855Z,48.20
2018-09-04T05:16:02.177Z,53.40
2018-09-04T05:18:31.414Z,52.67
2018-09-04T05:21:00.748Z,57.20
2018-09-04T05:23:29.974Z,56.63
2018-09-04T05:25:59.175Z,54.87
2018-09-04T05:28:28.358Z,54.33
2018-09-04T05:30:57.438Z,54.77
2018-09-04T05:33:32.994Z,54.87
2018-09-04T05:36:02.011Z,54.87
2018-09-04T05:38:31.018Z,60.97
2018-09-04T05:40:59.962Z,62.53
2018-09-04T05:44:00.950Z,59.37
2018-09-04T05:46:40.242Z,60.57
2018-09-04T05:49:09.512Z,60.30
2018-09-04T05:51:38.772Z,54.67
2018-09-04T05:54:08.122Z,59.17
2018-09-04T05:56:37.375Z,59.40
2018-09-04T05:59:06.636Z,56.63
2018-09-04T06:01:36.023Z,58.57
2018-09-04T06:04:05.308Z,56.57
2018-09-04T06:06:35.015Z,56.57
2018-09-04T06:09:05.759Z,59.23
2018-09-04T06:11:35.459Z,55.23
2018-09-04T06:14:04.775Z,62.17
2018-09-04T06:16:34.108Z,55.13
2018-09-04T06:19:03.431Z,61.93
2018-09-04T06:21:32.739Z,56.97
2018-09-04T06:24:01.952Z,57.07
2018-09-04T06:26:31.214Z,56.23
2018-09-04T06:29:00.451Z,56.13
2018-09-04T06:31:29.652Z,56.20
2018-09-04T06:33:59.048Z,56.77
2018-09-04T06:36:28.260Z,55.43
2018-09-04T06:38:57.512Z,55.93
2018-09-04T06:41:26.719Z,58.40
2018-09-04T06:43:55.968Z,55.47
2018-09-04T06:46:25.264Z,53.57
2018-09-04T06:48:54.611Z,53.80
2018-09-04T06:51:23.802Z,54.70
2018-09-04T06:53:53.064Z,51.57
2018-09-04T06:56:22.399Z,52.80
2018-09-04T06:58:51.628Z,50.37
2018-09-04T07:01:20.887Z,56.70
2018-09-04T07:03:50.043Z,52.47
2018-09-04T07:06:19.276Z,55.80
2018-09-04T07:08:48.480Z,54.23
2018-09-04T07:11:17.771Z,54.23
2018-09-04T07:13:46.979Z,48.73
2018-09-04T07:16:16.227Z,50.57
2018-09-04T07:18:45.452Z,57.97
2018-09-04T07:21:14.684Z,51.47
2018-09-04T07:23:43.909Z,53.87
2018-09-04T07:26:13.440Z,51.30
2018-09-04T07:28:42.708Z,50.40
2018-09-04T07:31:11.991Z,55.60
2018-09-04T07:33:41.175Z,52.77
2018-09-04T07:36:10.451Z,50.50
2018-09-04T07:38:39.617Z,53.40
2018-09-04T07:41:08.929Z,51.07
2018-09-04T07:43:38.137Z,55.60
2018-09-04T07:46:07.461Z,56.00
2018-09-04T07:48:36.720Z,56.83
2018-09-04T07:51:06.071Z,52.53
2018-09-04T07:53:35.388Z,51.93
2018-09-04T07:56:04.667Z,56.40
2018-09-04T07:58:33.894Z,55.17
2018-09-04T08:01:03.243Z,57.30
2018-09-04T08:03:32.440Z,51.47
2018-09-04T08:06:01.676Z,55.17
2018-09-04T08:08:30.915Z,52.70
2018-09-04T08:11:00.345Z,56.47
2018-09-04T08:13:29.588Z,52.60
2018-09-04T08:15:58.888Z,52.83
2018-09-04T08:18:28.140Z,57.17
2018-09-04T08:20:57.546Z,53.27
2018-09-04T08:23:26.730Z,56.90
2018-09-04T08:25:56.033Z,54.63
2018-09-04T08:28:25.260Z,56.40
2018-09-04T08:30:54.636Z,57.63
2018-09-04T08:33:23.883Z,54.27
2018-09-04T08:35:53.156Z,54.43
2018-09-04T08:38:22.408Z,53.67
2018-09-04T08:40:51.690Z,55.33
2018-09-04T08:43:21.045Z,54.80
2018-09-04T08:45:50.292Z,51.60
2018-09-04T08:48:20.787Z,54.97
2018-09-04T08:50:50.155Z,49.90
2018-09-04T08:53:19.457Z,49.10
2018-09-04T08:55:48.691Z,48.57
2018-09-04T08:58:17.961Z,48.87
2018-09-04T09:00:47.241Z,51.07
2018-09-04T09:03:16.592Z,54.83
2018-09-04T09:05:45.816Z,51.03
2018-09-04T09:08:15.067Z,47.10
2018-09-04T09:10:44.356Z,49.00
2018-09-04T09:13:13.587Z,48.87
2018-09-04T09:15:42.863Z,50.30
2018-09-04T09:18:12.154Z,50.83
2018-09-04T09:20:42.439Z,47.60
2018-09-04T09:23:11.723Z,44.07
2018-09-04T09:25:40.915Z,47.90
2018-09-04T09:28:10.291Z,48.83
2018-09-04T09:30:39.573Z,45.23
2018-09-04T09:33:08.833Z,50.27
2018-09-04T09:35:38.138Z,48.97
2018-09-04T09:38:07.341Z,43.67
2018-09-04T09:40:36.617Z,50.90
2018-09-04T09:43:06.193Z,44.37
2018-09-04T09:45:35.475Z,42.10
2018-09-04T09:48:04.880Z,44.23
2018-09-04T09:50:34.157Z,44.53
2018-09-04T09:53:03.549Z,43.53
2018-09-04T09:55:32.707Z,43.13
2018-09-04T09:58:02.017Z,42.13
2018-09-04T10:00:38.230Z,46.30
2018-09-04T10:03:12.712Z,43.50
2018-09-04T10:05:41.947Z,43.20
2018-09-04T10:08:11.309Z,43.43
2018-09-04T10:10:40.578Z,40.43
2018-09-04T10:13:10.115Z,41.83
2018-09-04T10:15:39.348Z,42.07
2018-09-04T10:18:08.600Z,44.07
2018-09-04T10:20:37.832Z,41.83
2018-09-04T10:23:07.123Z,40.00
2018-09-04T10:25:36.289Z,41.20
2018-09-04T10:28:05.536Z,39.97
2018-09-04T10:30:34.732Z,40.87
2018-09-04T10:33:04.015Z,39.40
2018-09-04T10:35:33.247Z,39.30
2018-09-04T10:38:02.530Z,41.93
2018-09-04T10:40:36.956Z,39.47
2018-09-04T10:43:06.293Z,39.70
2018-09-04T10:45:40.660Z,40.37
2018-09-04T10:48:13.935Z,41.83
2018-09-04T10:50:43.191Z,40.57
2018-09-04T10:53:12.418Z,38.13
2018-09-04T10:55:41.740Z,36.77
2018-09-04T10:58:10.960Z,36.43
2018-09-04T11:00:40.211Z,37.13
2018-09-04T11:03:09.435Z,36.53
2018-09-04T11:05:39.152Z,38.27
2018-09-04T11:08:08.464Z,36.57
2018-09-04T11:10:37.688Z,37.87
2018-09-04T11:13:07.751Z,37.20
2018-09-04T11:15:36.964Z,37.53
2018-09-04T11:18:06.329Z,35.03
2018-09-04T11:20:35.528Z,35.43
2018-09-04T11:23:04.991Z,35.97
2018-09-04T11:25:34.257Z,35.00
2018-09-04T11:28:03.504Z,36.37
2018-09-04T11:30:32.779Z,37.63
2018-09-04T11:33:02.199Z,37.30
2018-09-04T11:35:32.260Z,40.23
2018-09-04T11:38:01.647Z,40.73
2018-09-04T11:40:30.877Z,40.40
2018-09-04T11:43:00.226Z,40.93
2018-09-04T11:45:29.524Z,39.57
2018-09-04T11:48:00.576Z,41.23
2018-09-04T11:50:29.859Z,40.67
2018-09-04T11:52:59.132Z,38.27
2018-09-04T11:55:28.372Z,40.60
2018-09-04T11:57:57.509Z,40.07
2018-09-04T12:00:39.461Z,38.00
2018-09-04T12:03:10.006Z,36.13
2018-09-04T12:05:39.315Z,35.13
2018-09-04T12:08:08.525Z,36.20
2018-09-04T12:10:37.752Z,38.77
2018-09-04T12:13:07.023Z,37.63
2018-09-04T12:15:40.057Z,36.97
2018-09-04T12:18:10.339Z,32.73
2018-09-04T12:20:43.151Z,36.93
2018-09-04T12:23:12.339Z,34.13
2018-09-04T12:25:42.319Z,35.43
2018-09-04T12:28:11.516Z,35.23
2018-09-04T12:30:40.788Z,36.70
2018-09-04T12:33:10.066Z,37.67
2018-09-04T12:35:39.356Z,35.60
2018-09-04T12:38:11.171Z,37.90
2018-09-04T12:40:40.543Z,35.67
2018-09-04T12:43:09.772Z,32.97
2018-09-04T12:45:44.074Z,32.87
2018-09-04T12:48:17.531Z,33.47
2018-09-04T12:50:46.616Z,34.63
2018-09-04T12:53:15.839Z,35.33
2018-09-04T12:55:45.099Z,32.73
2018-09-04T12:58:14.414Z,37.00
2018-09-04T13:00:48.808Z,36.17
2018-09-04T13:03:19.304Z,36.50
2018-09-04T13:05:48.595Z,32.43
2018-09-04T13:08:18.668Z,35.90
2018-09-04T13:10:48.119Z,34.13
2018-09-04T13:13:17.320Z,33.07
2018-09-04T13:15:48.502Z,34.03
2018-09-04T13:18:17.859Z,32.13
2018-09-04T13:20:47.229Z,34.43
2018-09-04T13:23:16.525Z,34.83
2018-09-04T13:25:45.836Z,31.80
2018-09-04T13:28:15.085Z,33.40
2018-09-04T13:30:44.442Z,34.17
2018-09-04T13:33:13.650Z,33.17
2018-09-04T13:35:42.944Z,33.90
2018-09-04T13:38:12.159Z,33.17
2018-09-04T13:40:41.410Z,31.17
2018-09-04T13:43:10.661Z,28.97
2018-09-04T13:45:39.891Z,32.97
2018-09-04T13:48:09.181Z,32.20
2018-09-04T13:50:38.486Z,30.33
2018-09-04T13:53:07.656Z,29.80
2018-09-04T13:55:36.971Z,28.70
2018-09-04T13:58:06.159Z,28.13
2018-09-04T14:00:35.429Z,25.17
2018-09-04T14:03:04.691Z,24.87
2018-09-04T14:08:40.425Z,22.90
2018-09-04T14:11:09.614Z,21.83
2018-09-04T14:13:38.747Z,21.77
2018-09-04T14:16:10.491Z,21.57
2018-09-04T14:18:39.737Z,22.43
2018-09-04T14:21:09.233Z,22.53
2018-09-04T14:23:38.354Z,22.37
2018-09-04T14:26:08.070Z,24.90
2018-09-04T14:28:41.578Z,21.42
2018-09-04T14:31:07.484Z,23.07
2018-09-04T14:33:36.732Z,22.45
2018-09-04T14:36:06.058Z,21.35
2018-09-04T14:38:35.387Z,21.45
2018-09-04T14:41:05.132Z,21.10
2018-09-04T14:43:34.487Z,20.10
2018-09-04T14:46:03.915Z,20.33
2018-09-04T14:48:33.175Z,20.95
2018-09-04T14:51:02.682Z,19.40
2018-09-04T14:53:31.945Z,21.00
2018-09-04T14:56:01.220Z,20.73
2018-09-04T14:58:30.393Z,20.55
2018-09-04T15:01:04.462Z,20.70
2018-09-04T15:03:33.692Z,20.93
2018-09-04T15:06:02.985Z,20.67
2018-09-04T15:08:32.267Z,20.37
2018-09-04T15:11:01.541Z,20.03
2018-09-04T15:13:30.828Z,18.80
2018-09-04T15:16:00.760Z,20.17
2018-09-04T15:18:30.080Z,20.60
2018-09-04T15:20:59.654Z,20.07
2018-09-04T15:23:28.870Z,20.83
2018-09-04T15:25:58.359Z,18.03
2018-09-04T15:28:27.603Z,19.87
2018-09-04T15:30:57.660Z,21.53
2018-09-04T15:33:26.874Z,20.63
2018-09-04T15:35:56.554Z,19.17
2018-09-04T15:38:25.879Z,20.00
2018-09-04T15:40:55.095Z,19.50
2018-09-04T15:43:24.311Z,20.57
2018-09-04T15:45:53.544Z,18.97
2018-09-04T15:48:22.810Z,19.90
2018-09-04T15:50:52.060Z,19.60
2018-09-04T15:53:21.339Z,19.40
2018-09-04T15:55:50.733Z,18.70
2018-09-04T15:58:20.465Z,18.13
2018-09-04T16:00:49.764Z,21.93
2018-09-04T16:03:19.041Z,22.63
2018-09-04T16:05:48.375Z,21.23
2018-09-04T16:08:17.793Z,20.83
2018-09-04T16:10:47.052Z,19.53
2018-09-04T16:13:16.333Z,22.10
2018-09-04T16:15:45.556Z,18.87
2018-09-04T16:18:14.779Z,18.27
2018-09-04T16:20:44.327Z,18.40
2018-09-04T16:23:14.074Z,18.13
2018-09-04T16:25:44.063Z,18.37
2018-09-04T16:28:13.412Z,17.83
2018-09-04T16:30:43.660Z,20.93
2018-09-04T16:33:12.841Z,18.63
2018-09-04T16:35:42.425Z,17.80
2018-09-04T16:38:11.731Z,17.43
2018-09-04T16:40:40.895Z,17.80
2018-09-04T16:43:10.155Z,19.03
2018-09-04T16:45:39.439Z,18.57
2018-09-04T16:48:08.751Z,19.20
2018-09-04T16:50:37.978Z,18.03
2018-09-04T16:53:07.292Z,17.40
2018-09-04T16:55:36.596Z,16.60
2018-09-04T16:58:06.154Z,16.90
2018-09-04T17:00:35.392Z,17.40
2018-09-04T17:03:08.540Z,17.27
2018-09-04T17:05:39.637Z,17.03
2018-09-04T17:08:33.172Z,17.60
2018-09-04T17:11:02.356Z,17.13
2018-09-04T17:13:31.932Z,18.00
2018-09-04T17:16:01.133Z,18.50
2018-09-04T17:18:30.369Z,17.57
2018-09-04T17:20:59.547Z,17.63
2018-09-04T17:23:28.788Z,20.47
2018-09-04T17:25:58.040Z,17.77
2018-09-04T17:28:27.717Z,18.00
2018-09-04T17:30:56.862Z,17.87
2018-09-04T17:33:26.076Z,17.90
2018-09-04T17:35:55.360Z,18.90
2018-09-04T17:38:24.632Z,18.83
2018-09-04T17:40:53.833Z,19.17
2018-09-04T17:43:30.491Z,18.60
2018-09-04T17:46:22.559Z,17.67
2018-09-04T17:48:51.809Z,17.80
2018-09-04T17:51:21.095Z,18.60
2018-09-04T17:53:50.623Z,18.67
2018-09-04T17:56:19.916Z,18.70
2018-09-04T17:58:49.209Z,18.93
2018-09-04T18:01:18.425Z,18.60
2018-09-04T18:03:48.454Z,19.33
2018-09-04T18:06:17.723Z,19.73
2018-09-04T18:11:55.947Z,19.50
2018-09-04T18:14:25.457Z,19.07
2018-09-04T18:16:54.686Z,18.50
2018-09-04T18:19:24.044Z,18.93
2018-09-04T18:21:53.416Z,19.30
2018-09-04T18:24:22.948Z,23.70
2018-09-04T18:26:52.359Z,20.20
2018-09-04T18:29:21.579Z,20.37
2018-09-04T18:31:50.798Z,19.07
2018-09-04T18:34:20.177Z,20.23
2018-09-04T18:36:49.407Z,19.77
2018-09-04T18:39:20.202Z,19.33
2018-09-04T18:41:49.800Z,19.60
2018-09-04T18:44:19.020Z,20.27
2018-09-04T18:46:48.291Z,19.93
2018-09-04T18:49:17.607Z,18.23
2018-09-04T18:51:46.893Z,20.90
2018-09-04T18:54:16.128Z,18.53
2018-09-04T18:56:45.315Z,18.50
2018-09-04T18:59:14.563Z,18.80
2018-09-04T19:01:43.797Z,18.87
2018-09-04T19:04:13.068Z,18.97
2018-09-04T19:06:42.306Z,19.00
2018-09-04T19:09:11.640Z,18.90
2018-09-04T19:11:40.864Z,18.57
2018-09-04T19:14:10.230Z,19.07
2018-09-04T19:16:40.774Z,18.17
2018-09-04T19:19:10.021Z,19.13
2018-09-04T19:24:42.784Z,18.10
2018-09-04T19:27:12.035Z,17.80
2018-09-04T19:32:35.511Z,17.73
2018-09-04T19:35:04.932Z,18.13
2018-09-04T19:37:34.335Z,17.57
2018-09-04T19:40:03.592Z,17.00
2018-09-04T19:42:32.906Z,18.10
2018-09-04T19:45:02.238Z,17.60
2018-09-04T19:47:39.554Z,17.53
2018-09-04T19:50:15.769Z,17.33
2018-09-04T19:52:45.008Z,17.23
2018-09-04T19:55:14.471Z,16.87
2018-09-04T19:57:43.876Z,16.83
2018-09-04T20:00:13.103Z,17.47
2018-09-04T20:02:42.365Z,16.50
2018-09-04T20:05:11.610Z,16.70
2018-09-04T20:07:40.801Z,15.83
2018-09-04T20:10:10.194Z,15.97
2018-09-04T20:12:39.578Z,17.40
2018-09-04T20:15:08.908Z,16.17
2018-09-04T20:17:39.056Z,16.53
2018-09-04T20:20:08.424Z,16.03
2018-09-04T20:22:37.651Z,15.57
2018-09-04T20:25:07.067Z,16.27
2018-09-04T20:27:36.267Z,16.03
2018-09-04T20:30:07.215Z,16.93
2018-09-04T20:32:36.607Z,16.40
2018-09-04T20:35:06.132Z,15.43
2018-09-04T20:37:35.447Z,17.00
2018-09-04T20:40:04.793Z,16.03
2018-09-04T20:42:42.350Z,15.33
2018-09-04T20:45:11.691Z,16.67
2018-09-04T20:47:40.912Z,16.93
2018-09-04T20:50:10.366Z,15.47
2018-09-04T20:52:39.667Z,15.53
2018-09-04T20:55:08.947Z,15.50
2018-09-04T20:57:38.256Z,15.93
2018-09-04T21:00:19.884Z,15.27
2018-09-04T21:03:00.263Z,15.80
2018-09-04T21:05:40.267Z,15.33
2018-09-04T21:08:25.204Z,15.20
2018-09-04T21:10:54.492Z,15.97
2018-09-04T21:13:23.691Z,15.53
2018-09-04T21:15:52.979Z,15.60
2018-09-04T21:18:22.268Z,15.03
2018-09-04T21:20:51.561Z,15.40
2018-09-04T21:23:20.928Z,14.90
2018-09-04T21:25:50.236Z,15.07
2018-09-04T21:28:19.694Z,16.17
2018-09-04T21:30:50.743Z,16.07
2018-09-04T21:33:20.033Z,16.57
2018-09-04T21:35:52.090Z,17.00
2018-09-04T21:38:21.435Z,16.73
2018-09-04T21:40:50.675Z,17.33
2018-09-04T21:43:19.940Z,16.47
2018-09-04T21:45:49.196Z,16.63
2018-09-04T21:48:18.475Z,17.07
2018-09-04T21:50:48.027Z,16.63
2018-09-04T21:53:17.679Z,16.77
2018-09-04T21:55:46.900Z,17.63
2018-09-04T21:58:17.740Z,17.80
2018-09-04T22:00:47.062Z,17.17
2018-09-04T22:03:16.391Z,17.30
2018-09-04T22:05:45.596Z,17.20
2018-09-04T22:08:14.823Z,17.53
2018-09-04T22:10:44.144Z,17.60
2018-09-04T22:13:13.381Z,18.00
2018-09-04T22:15:42.575Z,17.37
2018-09-04T22:18:11.887Z,17.07
2018-09-04T22:20:41.115Z,16.67
2018-09-04T22:23:10.359Z,17.63
2018-09-04T22:25:39.648Z,18.17
2018-09-04T22:28:08.866Z,18.87
2018-09-04T22:30:38.073Z,15.77
2018-09-04T22:33:07.402Z,16.40
2018-09-04T22:35:36.617Z,16.30
2018-09-04T22:38:05.808Z,15.23
2018-09-04T22:40:38.099Z,16.37
2018-09-04T22:43:07.363Z,16.67
2018-09-04T22:45:36.652Z,15.47
2018-09-04T22:48:05.923Z,14.73
2018-09-04T22:50:40.309Z,15.23
2018-09-04T22:53:09.539Z,16.00
2018-09-04T22:55:38.860Z,15.60
2018-09-04T22:58:08.287Z,16.00
2018-09-04T23:00:37.428Z,15.30
2018-09-04T23:03:06.714Z,16.20
2018-09-04T23:05:36.007Z,14.83
2018-09-04T23:08:05.339Z,15.90
2018-09-04T23:10:34.671Z,14.70
2018-09-04T23:13:03.859Z,14.50
2018-09-04T23:15:36.913Z,15.23
2018-09-04T23:18:06.128Z,16.13
2018-09-04T23:20:35.436Z,16.07
2018-09-04T23:23:05.699Z,15.20
2018-09-04T23:25:35.032Z,15.03
2018-09-04T23:28:04.287Z,15.47
2018-09-04T23:30:33.543Z,14.97
2018-09-04T23:33:02.799Z,16.23
2018-09-04T23:35:32.021Z,16.97
2018-09-04T23:38:01.247Z,14.97
2018-09-04T23:40:30.491Z,15.70
2018-09-04T23:42:59.707Z,15.70
2018-09-04T23:45:29.576Z,16.20
2018-09-04T23:47:58.759Z,17.07
2018-09-04T23:50:28.841Z,16.10
2018-09-04T23:52:58.399Z,16.53
2018-09-04T23:55:27.692Z,16.43
2018-09-04T23:57:56.911Z,16.57
